createdAt,value
2022-08-08T00:01:21.050Z,17.25
2022-08-08T00:04:55.783Z,17.26
2022-08-08T00:07:37.991Z,17.10
2022-08-08T00:10:22.193Z,16.94
2022-08-08T00:13:04.221Z,16.79
2022-08-08T00:15:57.429Z,16.73
2022-08-08T00:18:35.028Z,16.81
2022-08-08T00:21:05.227Z,16.89
2022-08-08T00:23:51.332Z,17.01
2022-08-08T00:26:29.805Z,16.99
2022-08-08T00:29:45.799Z,16.94
2022-08-08T00:32:34.662Z,16.82
2022-08-08T00:35:20.110Z,16.83
2022-08-08T00:38:03.138Z,16.80
2022-08-08T00:41:10.573Z,16.74
2022-08-08T00:43:40.797Z,16.78
2022-08-08T00:46:57.438Z,16.73
2022-08-08T00:49:58.393Z,16.67
2022-08-08T00:53:00.754Z,16.72
2022-08-08T00:55:54.139Z,16.79
2022-08-08T00:59:02.861Z,16.69
2022-08-08T01:01:48.497Z,16.59
2022-08-08T01:04:54.994Z,16.59
2022-08-08T01:07:56.576Z,16.58
2022-08-08T01:10:39.962Z,16.56
2022-08-08T01:13:43.283Z,16.54
2022-08-08T01:16:38.435Z,16.44
2022-08-08T01:19:42.008Z,16.28
2022-08-08T01:22:34.868Z,16.18
2022-08-08T01:25:40.906Z,16.18
2022-08-08T01:28:38.929Z,16.01
2022-08-08T01:32:12.796Z,15.66
2022-08-08T01:34:54.580Z,15.76
2022-08-08T01:37:51.204Z,15.70
2022-08-08T01:40:54.393Z,15.73
2022-08-08T01:43:40.109Z,15.91
2022-08-08T01:46:41.883Z,15.67
2022-08-08T01:49:23.429Z,15.68
2022-08-08T01:53:05.217Z,15.68
2022-08-08T01:56:28.146Z,15.55
2022-08-08T01:58:47.258Z,15.49
2022-08-08T02:01:59.961Z,15.24
2022-08-08T02:04:43.474Z,15.38
2022-08-08T02:07:23.955Z,15.26
2022-08-08T02:10:03.897Z,15.34
2022-08-08T02:12:49.492Z,15.29
2022-08-08T02:15:34.962Z,15.17
2022-08-08T02:18:33.547Z,15.24
2022-08-08T02:21:32.601Z,15.21
2022-08-08T02:24:02.863Z,15.31
2022-08-08T02:26:37.537Z,15.45
2022-08-08T02:29:31.407Z,15.39
2022-08-08T02:32:22.791Z,15.44
2022-08-08T02:35:25.017Z,15.52
2022-08-08T02:38:13.041Z,15.61
2022-08-08T02:40:50.121Z,15.63
2022-08-08T02:44:38.730Z,15.53
2022-08-08T02:46:54.373Z,15.47
2022-08-08T02:49:51.430Z,15.21
2022-08-08T02:52:39.577Z,15.22
2022-08-08T02:55:37.701Z,15.21
2022-08-08T02:58:08.601Z,15.06
2022-08-08T03:01:02.800Z,14.98
2022-08-08T03:05:09.186Z,15.00
2022-08-08T03:07:06.937Z,15.09
2022-08-08T03:10:01.856Z,15.09
2022-08-08T03:13:01.688Z,14.82
2022-08-08T03:16:04.026Z,14.80
2022-08-08T03:19:02.049Z,14.67
2022-08-08T03:21:54.759Z,14.68
2022-08-08T03:24:19.649Z,14.66
2022-08-08T03:26:54.525Z,14.68
2022-08-08T03:29:54.442Z,14.77
2022-08-08T03:32:37.226Z,14.49
2022-08-08T03:35:09.814Z,14.52
2022-08-08T03:38:53.365Z,14.55
2022-08-08T03:40:29.515Z,14.57
2022-08-08T03:42:58.713Z,14.55
2022-08-08T03:46:07.395Z,14.55
2022-08-08T03:49:09.958Z,14.57
2022-08-08T03:51:16.523Z,14.61
2022-08-08T03:53:47.791Z,14.72
2022-08-08T03:56:31.552Z,14.72
2022-08-08T03:58:58.953Z,14.71
2022-08-08T04:02:13.174Z,14.61
2022-08-08T04:04:23.067Z,14.63
2022-08-08T04:06:58.227Z,14.51
2022-08-08T04:09:47.196Z,14.41
2022-08-08T04:12:15.680Z,14.42
2022-08-08T04:14:45.232Z,14.43
2022-08-08T04:17:22.348Z,14.41
2022-08-08T04:19:59.175Z,14.51
2022-08-08T04:22:29.458Z,14.36
2022-08-08T04:24:56.761Z,14.28
2022-08-08T04:28:01.890Z,14.33
2022-08-08T04:30:17.224Z,14.49
2022-08-08T04:32:45.626Z,14.58
2022-08-08T04:35:14.692Z,14.60
2022-08-08T04:37:41.205Z,14.65
2022-08-08T04:40:12.471Z,14.80
2022-08-08T04:42:56.365Z,14.76
2022-08-08T04:45:27.057Z,14.79
2022-08-08T04:47:54.469Z,14.80
2022-08-08T04:50:24.824Z,14.79
2022-08-08T04:53:00.987Z,14.76
2022-08-08T04:55:47.419Z,14.75
2022-08-08T04:58:18.483Z,14.87
2022-08-08T05:00:48.274Z,14.91
2022-08-08T05:03:18.758Z,15.03
2022-08-08T05:06:13.207Z,15.05
2022-08-08T05:08:46.345Z,15.13
2022-08-08T05:11:24.679Z,15.10
2022-08-08T05:13:58.462Z,15.22
2022-08-08T05:16:54.581Z,15.11
2022-08-08T05:20:10.912Z,14.97
2022-08-08T05:22:02.101Z,14.82
2022-08-08T05:24:30.795Z,15.07
2022-08-08T05:26:57.843Z,15.29
2022-08-08T05:29:25.182Z,15.34
2022-08-08T05:32:03.201Z,15.52
2022-08-08T05:34:49.838Z,15.68
2022-08-08T05:37:19.690Z,15.66
2022-08-08T05:39:52.777Z,15.72
2022-08-08T05:42:26.597Z,15.63
2022-08-08T05:44:54.508Z,15.98
2022-08-08T05:47:41.675Z,16.13
2022-08-08T05:50:13.643Z,16.41
2022-08-08T05:52:43.992Z,16.44
2022-08-08T05:55:10.793Z,16.49
2022-08-08T05:58:05.335Z,16.45
2022-08-08T06:00:34.137Z,16.42
2022-08-08T06:03:17.503Z,16.46
2022-08-08T06:06:01.175Z,16.57
2022-08-08T06:08:54.826Z,16.64
2022-08-08T06:11:22.468Z,16.56
2022-08-08T06:13:54.949Z,16.84
2022-08-08T06:16:27.261Z,17.13
2022-08-08T06:18:55.333Z,16.94
2022-08-08T06:21:32.782Z,17.15
2022-08-08T06:24:13.999Z,17.34
2022-08-08T06:27:06.211Z,17.48
2022-08-08T06:29:59.284Z,17.57
2022-08-08T06:32:31.028Z,17.36
2022-08-08T06:36:04.828Z,17.23
2022-08-08T06:37:59.771Z,17.53
2022-08-08T06:40:33.333Z,17.80
2022-08-08T06:43:06.149Z,17.91
2022-08-08T06:45:39.017Z,17.81
2022-08-08T06:48:06.326Z,17.80
2022-08-08T06:50:33.772Z,17.82
2022-08-08T06:53:13.870Z,17.99
2022-08-08T06:55:47.103Z,18.29
2022-08-08T06:58:20.079Z,18.43
2022-08-08T07:00:49.720Z,18.55
2022-08-08T07:03:52.261Z,18.47
2022-08-08T07:06:10.482Z,18.58
2022-08-08T07:08:39.494Z,18.76
2022-08-08T07:11:09.124Z,18.29
2022-08-08T07:14:00.563Z,18.50
2022-08-08T07:16:50.860Z,18.88
2022-08-08T07:19:27.421Z,19.18
2022-08-08T07:22:18.529Z,19.18
2022-08-08T07:24:54.944Z,19.16
2022-08-08T07:27:35.224Z,19.17
2022-08-08T07:30:16.838Z,19.28
2022-08-08T07:32:49.003Z,19.71
2022-08-08T07:35:17.806Z,19.64
2022-08-08T07:37:56.283Z,19.55
2022-08-08T07:40:33.036Z,20.20
2022-08-08T07:43:09.271Z,20.20
2022-08-08T07:46:04.712Z,20.62
2022-08-08T07:48:23.592Z,20.65
2022-08-08T07:50:52.399Z,20.70
2022-08-08T07:54:01.061Z,20.68
2022-08-08T07:56:49.002Z,20.84
2022-08-08T07:59:19.464Z,21.05
2022-08-08T08:02:35.996Z,21.29
2022-08-08T08:04:49.021Z,21.12
2022-08-08T08:07:17.174Z,21.22
2022-08-08T08:09:43.981Z,21.35
2022-08-08T08:12:31.737Z,21.33
2022-08-08T08:15:08.506Z,21.46
2022-08-08T08:17:48.881Z,21.66
2022-08-08T08:20:18.689Z,21.85
2022-08-08T08:22:47.424Z,21.62
2022-08-08T08:25:16.945Z,21.46
2022-08-08T08:27:46.958Z,21.27
2022-08-08T08:30:14.336Z,21.48
2022-08-08T08:32:49.284Z,21.54
2022-08-08T08:35:21.446Z,21.81
2022-08-08T08:38:14.617Z,21.62
2022-08-08T08:40:35.019Z,21.49
2022-08-08T08:43:02.850Z,21.74
2022-08-08T08:45:31.165Z,21.59
2022-08-08T08:48:00.939Z,21.72
2022-08-08T08:50:33.361Z,21.83
2022-08-08T08:53:54.576Z,21.99
2022-08-08T08:56:01.481Z,22.29
2022-08-08T08:58:42.305Z,22.36
2022-08-08T09:01:15.178Z,22.48
2022-08-08T09:03:46.079Z,22.11
2022-08-08T09:06:28.803Z,22.08
2022-08-08T09:09:03.385Z,22.09
2022-08-08T09:11:47.449Z,22.46
2022-08-08T09:14:25.836Z,22.52
2022-08-08T09:16:53.739Z,22.89
2022-08-08T09:21:57.969Z,22.77
2022-08-08T09:22:07.859Z,22.72
2022-08-08T09:24:35.978Z,23.02
2022-08-08T09:27:15.050Z,23.31
2022-08-08T09:30:17.164Z,23.54
2022-08-08T09:33:55.620Z,23.88
2022-08-08T09:35:49.850Z,24.22
2022-08-08T09:38:59.194Z,23.63
2022-08-08T09:42:14.262Z,23.72
2022-08-08T09:44:48.621Z,22.88
2022-08-08T09:47:26.689Z,23.59
2022-08-08T09:50:16.211Z,24.24
2022-08-08T09:52:59.091Z,24.37
2022-08-08T09:55:51.424Z,23.94
2022-08-08T09:58:26.082Z,24.24
2022-08-08T10:01:15.350Z,24.21
2022-08-08T10:03:57.448Z,24.21
2022-08-08T10:06:29.385Z,24.07
2022-08-08T10:08:56.730Z,24.43
2022-08-08T10:12:27.671Z,24.01
2022-08-08T10:14:28.443Z,24.22
2022-08-08T10:16:58.747Z,24.42
2022-08-08T10:19:46.128Z,24.36
2022-08-08T10:22:23.882Z,24.42
2022-08-08T10:25:00.089Z,24.75
2022-08-08T10:27:34.574Z,24.77
2022-08-08T10:30:03.855Z,25.10
2022-08-08T10:32:48.440Z,25.05
2022-08-08T10:35:20.576Z,24.63
2022-08-08T10:38:08.532Z,24.52
2022-08-08T10:40:37.944Z,25.13
2022-08-08T10:43:05.559Z,25.28
2022-08-08T10:45:56.619Z,24.91
2022-08-08T10:48:57.496Z,25.12
2022-08-08T10:51:31.347Z,25.23
2022-08-08T10:54:07.123Z,24.79
2022-08-08T10:56:35.630Z,24.75
2022-08-08T10:59:12.172Z,25.08
2022-08-08T11:01:46.597Z,25.44
2022-08-08T11:04:29.695Z,26.08
2022-08-08T11:07:06.776Z,25.76
2022-08-08T11:09:34.313Z,25.94
2022-08-08T11:12:12.412Z,26.11
2022-08-08T11:14:53.677Z,25.70
2022-08-08T11:17:59.992Z,26.16
2022-08-08T11:20:18.052Z,26.53
2022-08-08T11:22:51.006Z,26.97
2022-08-08T11:25:19.433Z,25.87
2022-08-08T11:28:08.782Z,25.15
2022-08-08T11:30:40.941Z,24.76
2022-08-08T11:33:19.180Z,25.37
2022-08-08T11:35:46.696Z,25.44
2022-08-08T11:38:39.341Z,25.21
2022-08-08T11:41:01.719Z,25.91
2022-08-08T11:43:39.605Z,26.04
2022-08-08T11:46:14.071Z,25.77
2022-08-08T11:48:47.103Z,25.96
2022-08-08T11:51:30.444Z,26.03
2022-08-08T11:54:04.206Z,26.23
2022-08-08T11:56:35.499Z,26.65
2022-08-08T11:59:10.428Z,25.44
2022-08-08T12:01:37.543Z,25.22
2022-08-08T12:04:05.925Z,25.51
2022-08-08T12:06:33.751Z,25.07
2022-08-08T12:09:08.690Z,24.50
2022-08-08T12:11:41.414Z,24.94
2022-08-08T12:14:11.061Z,25.43
2022-08-08T12:16:49.180Z,25.52
2022-08-08T12:19:15.941Z,25.46
2022-08-08T12:22:00.492Z,25.48
2022-08-08T12:24:51.533Z,25.59
2022-08-08T12:27:26.886Z,26.10
2022-08-08T12:29:59.978Z,26.31
2022-08-08T12:32:31.466Z,27.10
2022-08-08T12:35:04.191Z,27.68
2022-08-08T12:37:40.182Z,26.12
2022-08-08T12:40:22.883Z,25.61
2022-08-08T12:42:51.672Z,26.05
2022-08-08T12:45:54.584Z,25.33
2022-08-08T12:48:10.083Z,26.38
2022-08-08T12:50:58.243Z,26.59
2022-08-08T12:53:29.952Z,26.51
2022-08-08T12:56:19.530Z,25.92
2022-08-08T12:58:54.561Z,26.29
2022-08-08T13:01:34.999Z,26.76
2022-08-08T13:04:18.691Z,27.23
2022-08-08T13:06:56.740Z,27.65
2022-08-08T13:09:30.242Z,27.90
2022-08-08T13:12:18.115Z,28.02
2022-08-08T13:14:53.042Z,28.23
2022-08-08T13:18:08.878Z,27.98
2022-08-08T13:20:14.003Z,26.92
2022-08-08T13:22:44.634Z,27.17
2022-08-08T13:25:21.329Z,27.30
2022-08-08T13:27:56.493Z,27.53
2022-08-08T13:30:26.176Z,28.08
2022-08-08T13:32:58.709Z,27.95
2022-08-08T13:35:29.455Z,27.17
2022-08-08T13:38:08.073Z,26.80
2022-08-08T13:40:40.964Z,26.92
2022-08-08T13:43:08.484Z,26.99
2022-08-08T13:45:36.829Z,27.37
2022-08-08T13:48:08.590Z,27.36
2022-08-08T13:50:43.248Z,26.89
2022-08-08T13:53:28.105Z,26.81
2022-08-08T13:56:05.136Z,26.95
2022-08-08T13:58:36.119Z,26.96
2022-08-08T14:01:41.571Z,27.26
2022-08-08T14:04:52.917Z,27.86
2022-08-08T14:07:45.514Z,27.45
2022-08-08T14:13:38.676Z,25.78
2022-08-08T14:16:46.773Z,25.99
2022-08-08T14:20:07.610Z,26.72
2022-08-08T14:23:03.648Z,27.31
2022-08-08T14:26:30.040Z,26.10
2022-08-08T14:29:11.776Z,26.79
2022-08-08T14:35:11.054Z,26.71
2022-08-08T14:38:00.299Z,26.72
2022-08-08T14:44:13.229Z,26.70
2022-08-08T14:50:38.410Z,26.06
2022-08-08T14:53:28.576Z,26.83
2022-08-08T14:56:29.382Z,27.56
2022-08-08T14:59:04.802Z,27.26
2022-08-08T15:02:03.170Z,26.67
2022-08-08T15:04:46.608Z,27.13
2022-08-08T15:07:40.390Z,27.23
2022-08-08T15:10:13.174Z,27.01
2022-08-08T15:13:10.643Z,26.89
2022-08-08T15:16:39.178Z,26.76
2022-08-08T15:19:35.049Z,26.47
2022-08-08T15:22:17.889Z,26.34
2022-08-08T15:25:08.518Z,27.28
2022-08-08T15:28:03.971Z,26.69
2022-08-08T15:30:48.834Z,26.41
2022-08-08T15:33:38.322Z,25.99
2022-08-08T15:36:18.667Z,26.84
2022-08-08T15:39:04.094Z,26.34
2022-08-08T15:41:55.170Z,26.60
2022-08-08T15:44:38.640Z,25.94
2022-08-08T15:47:28.174Z,26.33
2022-08-08T15:50:09.682Z,25.74
2022-08-08T15:53:20.024Z,25.49
2022-08-08T15:55:47.338Z,26.13
2022-08-08T15:58:16.736Z,26.19
2022-08-08T16:00:47.323Z,25.97
2022-08-08T16:03:17.189Z,26.17
2022-08-08T16:06:01.030Z,26.39
2022-08-08T16:08:28.849Z,26.12
2022-08-08T16:13:02.255Z,25.75
2022-08-08T16:13:46.296Z,25.74
2022-08-08T16:16:17.935Z,25.44
2022-08-08T16:18:57.366Z,25.90
2022-08-08T16:21:27.703Z,25.91
2022-08-08T16:23:56.121Z,25.99
2022-08-08T16:26:33.993Z,25.57
2022-08-08T16:29:02.406Z,25.71
2022-08-08T16:31:29.966Z,25.72
2022-08-08T16:33:59.389Z,25.75
2022-08-08T16:36:34.047Z,25.69
2022-08-08T16:39:01.461Z,25.62
2022-08-08T16:41:36.968Z,25.42
2022-08-08T16:44:04.738Z,25.85
2022-08-08T16:46:36.595Z,25.66
2022-08-08T16:49:11.560Z,25.54
2022-08-08T16:55:04.908Z,25.14
2022-08-08T16:55:24.387Z,25.45
2022-08-08T16:57:23.222Z,25.15
2022-08-08T17:00:06.172Z,25.17
2022-08-08T17:02:39.248Z,25.26
2022-08-08T17:05:08.247Z,25.31
2022-08-08T17:07:37.939Z,25.39
2022-08-08T17:10:08.993Z,25.17
2022-08-08T17:12:36.658Z,25.32
2022-08-08T17:15:17.804Z,25.18
2022-08-08T17:18:02.225Z,24.86
2022-08-08T17:20:33.337Z,25.17
2022-08-08T17:23:25.707Z,24.98
2022-08-08T17:25:54.344Z,24.68
2022-08-08T17:28:34.509Z,25.02
2022-08-08T17:31:39.444Z,25.27
2022-08-08T17:34:54.038Z,25.11
2022-08-08T17:36:53.775Z,25.01
2022-08-08T17:40:04.335Z,25.54
2022-08-08T17:42:14.053Z,25.19
2022-08-08T17:44:44.520Z,25.48
2022-08-08T17:47:23.335Z,25.19
2022-08-08T17:50:01.328Z,25.24
2022-08-08T17:52:35.118Z,25.06
2022-08-08T17:55:05.145Z,24.87
2022-08-08T17:57:35.191Z,25.09
2022-08-08T18:00:06.601Z,24.86
2022-08-08T18:02:40.110Z,24.69
2022-08-08T18:05:14.685Z,24.22
2022-08-08T18:08:01.897Z,24.25
2022-08-08T18:10:31.331Z,24.52
2022-08-08T18:12:58.157Z,24.34
2022-08-08T18:15:25.133Z,24.07
2022-08-08T18:18:05.285Z,24.32
2022-08-08T18:20:52.215Z,24.17
2022-08-08T18:23:22.232Z,24.21
2022-08-08T18:25:50.122Z,24.09
2022-08-08T18:28:23.391Z,24.08
2022-08-08T18:30:52.269Z,24.37
2022-08-08T18:33:20.003Z,24.37
2022-08-08T18:36:10.198Z,24.25
2022-08-08T18:38:46.341Z,24.08
2022-08-08T18:41:15.817Z,23.76
2022-08-08T18:43:43.528Z,23.33
2022-08-08T18:46:54.803Z,23.14
2022-08-08T18:48:57.847Z,23.09
2022-08-08T18:51:48.265Z,23.07
2022-08-08T18:54:22.035Z,23.01
2022-08-08T18:56:49.973Z,22.93
2022-08-08T18:59:17.018Z,22.90
2022-08-08T19:02:26.411Z,22.76
2022-08-08T19:04:31.008Z,22.95
2022-08-08T19:06:57.595Z,22.82
2022-08-08T19:09:48.248Z,22.90
2022-08-08T19:12:13.493Z,22.73
2022-08-08T19:14:40.265Z,22.64
2022-08-08T19:17:10.567Z,22.80
2022-08-08T19:19:37.616Z,22.59
2022-08-08T19:22:11.079Z,22.43
2022-08-08T19:24:49.106Z,22.42
2022-08-08T19:27:56.465Z,22.26
2022-08-08T19:30:18.094Z,22.12
2022-08-08T19:32:51.353Z,21.89
2022-08-08T19:35:20.048Z,21.97
2022-08-08T19:37:57.646Z,21.75
2022-08-08T19:40:31.130Z,21.91
2022-08-08T19:43:03.575Z,22.28
2022-08-08T19:45:59.156Z,22.16
2022-08-08T19:48:29.486Z,21.98
2022-08-08T19:51:00.781Z,21.79
2022-08-08T19:53:51.203Z,21.53
2022-08-08T19:56:16.374Z,21.34
2022-08-08T19:58:52.910Z,21.25
2022-08-08T20:01:31.619Z,21.02
2022-08-08T20:04:08.413Z,21.21
2022-08-08T20:06:35.834Z,21.20
2022-08-08T20:09:04.640Z,21.25
2022-08-08T20:11:42.836Z,21.28
2022-08-08T20:14:13.280Z,20.94
2022-08-08T20:16:56.693Z,20.87
2022-08-08T20:19:26.304Z,20.59
2022-08-08T20:22:03.085Z,20.87
2022-08-08T20:24:31.981Z,21.08
2022-08-08T20:26:58.552Z,20.87
2022-08-08T20:29:25.898Z,20.79
2022-08-08T20:32:14.087Z,20.82
2022-08-08T20:34:47.926Z,20.85
2022-08-08T20:37:20.479Z,20.60
2022-08-08T20:39:51.193Z,20.68
2022-08-08T20:42:29.149Z,20.51
2022-08-08T20:44:57.708Z,20.45
2022-08-08T20:47:25.518Z,20.44
2022-08-08T20:49:55.818Z,20.45
2022-08-08T20:52:26.106Z,20.48
2022-08-08T20:54:52.706Z,20.79
2022-08-08T20:57:21.082Z,20.58
2022-08-08T20:59:48.436Z,20.25
2022-08-08T21:02:25.231Z,20.20
2022-08-08T21:05:00.850Z,20.32
2022-08-08T21:07:47.134Z,20.57
2022-08-08T21:10:14.840Z,20.31
2022-08-08T21:12:44.603Z,20.33
2022-08-08T21:15:16.605Z,20.30
2022-08-08T21:17:59.681Z,20.44
2022-08-08T21:20:34.020Z,20.11
2022-08-08T21:23:01.538Z,20.09
2022-08-08T21:25:29.171Z,19.96
2022-08-08T21:28:09.625Z,20.25
2022-08-08T21:30:42.733Z,20.50
2022-08-08T21:33:12.225Z,20.54
2022-08-08T21:36:16.156Z,20.53
2022-08-08T21:38:27.011Z,20.25
2022-08-08T21:40:56.239Z,20.00
2022-08-08T21:43:25.816Z,20.05
2022-08-08T21:48:05.671Z,20.09
2022-08-08T21:48:49.365Z,20.16
2022-08-08T21:51:20.283Z,20.21
2022-08-08T21:54:36.071Z,19.80
2022-08-08T21:56:54.058Z,19.86
2022-08-08T21:59:20.873Z,19.93
2022-08-08T22:01:52.034Z,19.81
2022-08-08T22:04:22.196Z,19.82
2022-08-08T22:06:51.791Z,19.91
2022-08-08T22:09:18.407Z,19.91
2022-08-08T22:12:02.208Z,19.98
2022-08-08T22:14:33.185Z,19.51
2022-08-08T22:17:01.138Z,19.55
2022-08-08T22:19:29.482Z,19.44
2022-08-08T22:21:56.770Z,19.49
2022-08-08T22:24:28.546Z,19.36
2022-08-08T22:27:02.366Z,19.13
2022-08-08T22:29:59.127Z,19.27
2022-08-08T22:32:18.846Z,19.21
2022-08-08T22:34:51.345Z,19.58
2022-08-08T22:37:27.913Z,19.77
2022-08-08T22:40:12.042Z,19.78
2022-08-08T22:42:45.775Z,19.79
2022-08-08T22:45:14.199Z,19.79
2022-08-08T22:47:47.223Z,19.20
2022-08-08T22:50:27.317Z,19.44
2022-08-08T22:54:28.347Z,19.55
2022-08-08T22:55:57.993Z,19.33
2022-08-08T22:58:34.382Z,19.45
2022-08-08T23:01:26.585Z,19.13
2022-08-08T23:03:55.944Z,19.23
2022-08-08T23:06:24.261Z,19.17
2022-08-08T23:08:58.345Z,19.19
2022-08-08T23:12:17.711Z,19.23
2022-08-08T23:14:18.510Z,19.00
2022-08-08T23:16:48.202Z,19.21
2022-08-08T23:19:21.194Z,19.38
2022-08-08T23:21:48.889Z,19.41
2022-08-08T23:24:22.505Z,19.16
2022-08-08T23:26:55.313Z,19.33
2022-08-08T23:29:23.871Z,19.26
2022-08-08T23:31:50.339Z,19.15
2022-08-08T23:34:19.581Z,18.99
2022-08-08T23:36:48.255Z,19.05
2022-08-08T23:39:15.617Z,19.11
2022-08-08T23:41:46.968Z,19.29
2022-08-08T23:44:18.689Z,19.26
2022-08-08T23:49:02.530Z,19.16
2022-08-08T23:49:33.433Z,19.10
2022-08-08T23:52:04.094Z,19.13
2022-08-08T23:54:43.053Z,19.13
2022-08-08T23:57:26.230Z,18.88
